createdAt,value
2022-08-22T00:00:49.914Z,97340.28
2022-08-22T00:02:42.244Z,97369.91
2022-08-22T00:03:28.090Z,97347.63
2022-08-22T00:06:25.718Z,97344.66
2022-08-22T00:08:58.303Z,97340.88
2022-08-22T00:11:41.009Z,97340.63
2022-08-22T00:14:14.002Z,97346.34
2022-08-22T00:17:08.014Z,97339.56
2022-08-22T00:21:51.351Z,97345.84
2022-08-22T00:24:17.865Z,97340.69
2022-08-22T00:26:51.972Z,97342.63
2022-08-22T00:29:25.245Z,97342.63
2022-08-22T00:32:04.285Z,97328.53
2022-08-22T00:34:40.185Z,97335.03
2022-08-22T00:37:24.702Z,97342.69
2022-08-22T00:40:03.498Z,97332.91
2022-08-22T00:42:49.152Z,97342.94
2022-08-22T00:45:53.339Z,97333.47
2022-08-22T00:48:51.880Z,97336.44
2022-08-22T00:51:25.396Z,97336.44
2022-08-22T00:54:06.917Z,97335.63
2022-08-22T00:56:52.207Z,97334.03
2022-08-22T00:59:36.997Z,97338.66
2022-08-22T01:02:10.784Z,97332.66
2022-08-22T01:04:43.324Z,97333.78
2022-08-22T01:07:38.239Z,97332.97
2022-08-22T01:10:47.010Z,97329.69
2022-08-22T01:13:35.413Z,97336.50
2022-08-22T01:16:16.110Z,97338.44
2022-08-22T01:19:20.353Z,97336.31
2022-08-22T01:21:58.033Z,97336.56
2022-08-22T01:25:07.163Z,97348.53
2022-08-22T01:28:06.005Z,97350.44
2022-08-22T01:30:50.501Z,97342.31
2022-08-22T01:33:41.321Z,97343.94
2022-08-22T01:36:29.546Z,97348.28
2022-08-22T01:39:18.561Z,97357.50
2022-08-22T01:42:00.269Z,97346.88
2022-08-22T01:44:47.966Z,97342.81
2022-08-22T01:47:23.650Z,97349.28
2022-08-22T01:50:00.545Z,97346.81
2022-08-22T01:52:37.107Z,97351.41
2022-08-22T01:55:32.453Z,97352.50
2022-08-22T01:58:14.322Z,97347.81
2022-08-22T02:01:02.040Z,97348.38
2022-08-22T02:03:40.063Z,97344.25
2022-08-22T02:06:16.927Z,97343.13
2022-08-22T02:09:07.210Z,97337.69
2022-08-22T02:11:37.438Z,97339.31
2022-08-22T02:14:17.347Z,97344.72
2022-08-22T02:16:48.237Z,97351.78
2022-08-22T02:22:53.344Z,97348.81
2022-08-22T02:25:26.032Z,97350.16
2022-08-22T02:28:00.609Z,97354.00
2022-08-22T02:30:44.004Z,97350.97
2022-08-22T02:33:21.442Z,97351.50
2022-08-22T02:36:04.331Z,97357.19
2022-08-22T02:38:42.802Z,97361.53
2022-08-22T02:41:21.873Z,97365.00
2022-08-22T02:43:51.090Z,97368.50
2022-08-22T02:46:23.013Z,97364.44
2022-08-22T02:49:09.469Z,97361.66
2022-08-22T02:52:21.381Z,97361.63
2022-08-22T02:55:08.231Z,97363.47
2022-08-22T02:57:57.430Z,97363.72
2022-08-22T03:00:31.335Z,97358.00
2022-08-22T03:03:05.606Z,97357.69
2022-08-22T03:05:38.372Z,97349.25
2022-08-22T03:08:16.936Z,97345.72
2022-08-22T03:10:50.432Z,97345.97
2022-08-22T03:13:25.955Z,97334.97
2022-08-22T03:16:03.378Z,97331.63
2022-08-22T03:18:41.848Z,97328.47
2022-08-22T03:21:33.945Z,97328.13
2022-08-22T03:24:32.986Z,97340.31
2022-08-22T03:27:33.539Z,97347.75
2022-08-22T03:30:06.184Z,97349.53
2022-08-22T03:32:59.523Z,97352.88
2022-08-22T03:35:32.441Z,97349.75
2022-08-22T03:38:39.038Z,97352.25
2022-08-22T03:41:27.451Z,97351.56
2022-08-22T03:44:21.882Z,97356.19
2022-08-22T03:47:23.185Z,97357.06
2022-08-22T03:50:17.810Z,97361.97
2022-08-22T03:53:18.753Z,97366.09
2022-08-22T03:56:13.816Z,97360.91
2022-08-22T03:59:10.008Z,97369.06
2022-08-22T04:01:58.998Z,97373.94
2022-08-22T04:04:47.074Z,97381.56
2022-08-22T04:07:36.155Z,97374.44
2022-08-22T04:10:27.138Z,97380.38
2022-08-22T04:13:13.950Z,97385.47
2022-08-22T04:15:52.859Z,97380.53
2022-08-22T04:18:38.013Z,97390.25
2022-08-22T04:23:49.529Z,97390.47
2022-08-22T04:26:26.048Z,97398.53
2022-08-22T04:28:59.043Z,97390.56
2022-08-22T04:31:36.843Z,97391.28
2022-08-22T04:34:11.907Z,97398.00
2022-08-22T04:36:46.085Z,97398.13
2022-08-22T04:39:20.458Z,97395.28
2022-08-22T04:41:50.422Z,97398.41
2022-08-22T04:44:30.320Z,97391.41
2022-08-22T04:47:06.321Z,97392.34
2022-08-22T04:49:41.931Z,97387.28
2022-08-22T04:52:53.568Z,97388.41
2022-08-22T04:55:33.095Z,97389.50
2022-08-22T04:58:38.523Z,97400.50
2022-08-22T05:01:14.896Z,97397.09
2022-08-22T05:03:49.698Z,97401.09
2022-08-22T05:06:19.977Z,97412.66
2022-08-22T05:08:53.739Z,97407.75
2022-08-22T05:11:23.811Z,97409.59
2022-08-22T05:13:56.982Z,97405.91
2022-08-22T05:16:28.516Z,97400.84
2022-08-22T05:19:03.001Z,97406.44
2022-08-22T05:21:35.556Z,97407.63
2022-08-22T05:24:09.464Z,97414.44
2022-08-22T05:26:47.344Z,97416.16
2022-08-22T05:29:20.314Z,97415.53
2022-08-22T05:31:52.771Z,97413.84
2022-08-22T05:34:24.234Z,97409.34
2022-08-22T05:36:59.777Z,97424.66
2022-08-22T05:39:28.352Z,97419.44
2022-08-22T05:41:57.089Z,97411.47
2022-08-22T05:44:37.819Z,97428.00
2022-08-22T05:47:23.709Z,97439.34
2022-08-22T05:50:02.702Z,97434.88
2022-08-22T05:52:41.535Z,97435.47
2022-08-22T05:55:16.941Z,97436.91
2022-08-22T05:57:50.598Z,97436.09
2022-08-22T06:00:25.765Z,97440.28
2022-08-22T06:02:58.358Z,97440.38
2022-08-22T06:05:29.587Z,97442.41
2022-08-22T06:08:17.285Z,97437.56
2022-08-22T06:10:48.374Z,97447.41
2022-08-22T06:13:32.777Z,97443.09
2022-08-22T06:16:24.997Z,97450.53
2022-08-22T06:18:52.868Z,97452.38
2022-08-22T06:24:39.582Z,97466.41
2022-08-22T06:27:13.388Z,97459.44
2022-08-22T06:29:46.910Z,97459.31
2022-08-22T06:32:44.436Z,97462.03
2022-08-22T06:35:19.611Z,97460.25
2022-08-22T06:37:51.331Z,97468.69
2022-08-22T06:40:21.405Z,97467.41
2022-08-22T06:42:51.190Z,97466.84
2022-08-22T06:45:28.410Z,97467.44
2022-08-22T06:48:15.594Z,97458.84
2022-08-22T06:50:45.643Z,97463.31
2022-08-22T06:53:17.952Z,97473.63
2022-08-22T06:55:57.393Z,97464.16
2022-08-22T06:58:34.279Z,97481.63
2022-08-22T07:01:11.729Z,97476.72
2022-08-22T07:03:50.321Z,97481.28
2022-08-22T07:06:21.147Z,97475.28
2022-08-22T07:08:53.841Z,97478.38
2022-08-22T07:11:28.047Z,97483.03
2022-08-22T07:14:07.888Z,97486.28
2022-08-22T07:16:39.806Z,97481.00
2022-08-22T07:19:08.511Z,97489.63
2022-08-22T07:21:45.130Z,97481.09
2022-08-22T07:24:17.926Z,97489.53
2022-08-22T07:27:08.948Z,97477.38
2022-08-22T07:29:44.267Z,97488.94
2022-08-22T07:32:20.472Z,97486.44
2022-08-22T07:34:53.640Z,97487.72
2022-08-22T07:37:36.751Z,97494.88
2022-08-22T07:40:27.496Z,97492.47
2022-08-22T07:43:08.752Z,97494.50
2022-08-22T07:45:52.475Z,97493.88
2022-08-22T07:48:59.488Z,97487.38
2022-08-22T07:51:33.742Z,97495.97
2022-08-22T07:54:05.645Z,97485.75
2022-08-22T07:56:56.366Z,97488.31
2022-08-22T07:59:24.713Z,97495.44
2022-08-22T08:01:54.795Z,97496.06
2022-08-22T08:04:27.299Z,97499.69
2022-08-22T08:06:58.794Z,97498.34
2022-08-22T08:09:30.482Z,97496.69
2022-08-22T08:12:03.926Z,97493.91
2022-08-22T08:14:31.389Z,97499.88
2022-08-22T08:17:14.954Z,97485.56
2022-08-22T08:19:43.553Z,97488.44
2022-08-22T08:26:17.569Z,97488.63
2022-08-22T08:28:50.049Z,97497.06
2022-08-22T08:31:27.541Z,97481.06
2022-08-22T08:34:10.940Z,97482.47
2022-08-22T08:36:48.521Z,97483.88
2022-08-22T08:39:18.450Z,97476.28
2022-08-22T08:42:07.348Z,97478.28
2022-08-22T08:45:01.587Z,97481.91
2022-08-22T08:47:49.754Z,97483.34
2022-08-22T08:50:45.146Z,97484.72
2022-08-22T08:53:35.502Z,97485.28
2022-08-22T08:56:19.978Z,97476.94
2022-08-22T08:58:59.962Z,97477.81
2022-08-22T09:01:44.939Z,97476.03
2022-08-22T09:04:45.654Z,97474.53
2022-08-22T09:07:33.108Z,97473.72
2022-08-22T09:10:39.294Z,97485.25
2022-08-22T09:13:34.614Z,97474.94
2022-08-22T09:16:32.316Z,97473.69
2022-08-22T09:19:17.106Z,97473.69
2022-08-22T09:21:49.989Z,97477.25
2022-08-22T09:24:42.668Z,97484.03
2022-08-22T09:27:18.593Z,97488.47
2022-08-22T09:30:08.875Z,97481.47
2022-08-22T09:32:54.803Z,97482.72
2022-08-22T09:35:53.364Z,97483.19
2022-08-22T09:38:31.599Z,97478.09
2022-08-22T09:41:23.552Z,97489.69
2022-08-22T09:44:22.578Z,97479.97
2022-08-22T09:46:55.974Z,97477.00
2022-08-22T09:49:54.367Z,97474.97
2022-08-22T09:52:50.605Z,97475.03
2022-08-22T09:55:39.666Z,97472.06
2022-08-22T09:58:12.235Z,97479.47
2022-08-22T10:00:47.732Z,97477.09
2022-08-22T10:03:46.824Z,97472.34
2022-08-22T10:06:20.841Z,97472.88
2022-08-22T10:09:08.868Z,97477.75
2022-08-22T10:11:43.517Z,97472.44
2022-08-22T10:14:15.650Z,97470.94
2022-08-22T10:17:13.637Z,97478.53
2022-08-22T10:19:58.991Z,97477.38
2022-08-22T10:23:00.043Z,97475.81
2022-08-22T10:26:56.194Z,97477.88
2022-08-22T10:29:26.184Z,97481.13
2022-08-22T10:32:07.721Z,97482.97
2022-08-22T10:34:47.340Z,97473.00
2022-08-22T10:37:30.556Z,97479.72
2022-08-22T10:40:26.954Z,97475.41
2022-08-22T10:43:08.140Z,97476.09
2022-08-22T10:45:40.682Z,97474.88
2022-08-22T10:48:30.506Z,97479.28
2022-08-22T10:51:22.729Z,97485.31
2022-08-22T10:54:14.887Z,97479.78
2022-08-22T10:57:26.915Z,97476.41
2022-08-22T11:00:01.040Z,97479.16
2022-08-22T11:02:27.725Z,97486.50
2022-08-22T11:05:06.452Z,97479.31
2022-08-22T11:07:57.029Z,97476.47
2022-08-22T11:11:01.679Z,97476.50
2022-08-22T11:13:43.503Z,97468.41
2022-08-22T11:16:16.293Z,97468.66
2022-08-22T11:19:02.133Z,97478.69
2022-08-22T11:22:07.058Z,97479.56
2022-08-22T11:24:56.494Z,97475.94
2022-08-22T11:27:45.417Z,97480.03
2022-08-22T11:30:30.271Z,97479.81
2022-08-22T11:33:33.920Z,97477.31
2022-08-22T11:36:26.956Z,97480.09
2022-08-22T11:39:24.397Z,97492.41
2022-08-22T11:42:12.663Z,97482.00
2022-08-22T11:44:54.417Z,97486.91
2022-08-22T11:47:28.081Z,97478.63
2022-08-22T11:50:06.965Z,97485.72
2022-08-22T11:52:55.288Z,97481.53
2022-08-22T11:55:37.617Z,97485.66
2022-08-22T11:58:13.360Z,97475.59
2022-08-22T12:00:59.829Z,97474.91
2022-08-22T12:03:59.726Z,97471.13
2022-08-22T12:06:48.546Z,97467.31
2022-08-22T12:09:41.682Z,97471.44
2022-08-22T12:12:17.030Z,97461.44
2022-08-22T12:15:05.381Z,97465.91
2022-08-22T12:18:15.315Z,97461.13
2022-08-22T12:21:21.561Z,97457.97
2022-08-22T12:27:56.862Z,97464.72
2022-08-22T12:30:37.535Z,97452.81
2022-08-22T12:33:33.945Z,97454.91
2022-08-22T12:36:18.091Z,97464.06
2022-08-22T12:39:18.968Z,97451.84
2022-08-22T12:41:48.443Z,97459.69
2022-08-22T12:44:46.853Z,97453.13
2022-08-22T12:47:55.423Z,97445.06
2022-08-22T12:50:44.766Z,97443.13
2022-08-22T12:53:20.453Z,97443.94
2022-08-22T12:56:10.318Z,97443.06
2022-08-22T12:58:55.137Z,97432.06
2022-08-22T13:01:34.233Z,97443.00
2022-08-22T13:04:08.321Z,97436.72
2022-08-22T13:06:35.606Z,97438.78
2022-08-22T13:09:09.889Z,97434.34
2022-08-22T13:11:41.823Z,97438.34
2022-08-22T13:14:12.099Z,97438.84
2022-08-22T13:16:51.219Z,97437.59
2022-08-22T13:19:25.538Z,97433.31
2022-08-22T13:21:59.301Z,97438.72
2022-08-22T13:24:40.715Z,97434.13
2022-08-22T13:27:25.166Z,97431.84
2022-08-22T13:30:06.356Z,97435.06
2022-08-22T13:32:39.583Z,97439.53
2022-08-22T13:35:23.998Z,97442.75
2022-08-22T13:37:56.427Z,97439.97
2022-08-22T13:40:29.622Z,97434.19
2022-08-22T13:43:05.680Z,97437.53
2022-08-22T13:45:37.280Z,97442.03
2022-08-22T13:48:15.681Z,97442.69
2022-08-22T13:51:12.172Z,97443.81
2022-08-22T13:53:49.894Z,97448.19
2022-08-22T13:57:14.582Z,97449.75
2022-08-22T13:59:59.463Z,97457.78
2022-08-22T14:02:48.947Z,97455.47
2022-08-22T14:05:48.244Z,97449.75
2022-08-22T14:08:25.799Z,97450.31
2022-08-22T14:11:01.394Z,97452.19
2022-08-22T14:13:59.374Z,97446.25
2022-08-22T14:16:27.566Z,97440.63
2022-08-22T14:19:05.898Z,97444.09
2022-08-22T14:21:41.601Z,97443.97
2022-08-22T14:24:45.688Z,97436.84
2022-08-22T14:28:35.749Z,97443.97
2022-08-22T14:31:13.464Z,97448.22
2022-08-22T14:34:07.809Z,97466.03
2022-08-22T14:36:48.012Z,97472.63
2022-08-22T14:39:43.575Z,97465.47
2022-08-22T14:42:44.342Z,97465.44
2022-08-22T14:45:18.499Z,97457.03
2022-08-22T14:48:14.501Z,97464.47
2022-08-22T14:50:53.042Z,97463.38
2022-08-22T14:53:19.760Z,97452.53
2022-08-22T14:55:57.656Z,97459.91
2022-08-22T14:58:27.555Z,97469.13
2022-08-22T15:00:56.799Z,97468.78
2022-08-22T15:03:32.445Z,97466.88
2022-08-22T15:06:10.993Z,97462.69
2022-08-22T15:08:50.572Z,97468.34
2022-08-22T15:11:25.571Z,97457.84
2022-08-22T15:14:04.458Z,97462.84
2022-08-22T15:17:01.678Z,97461.75
2022-08-22T15:19:36.287Z,97461.91
2022-08-22T15:22:25.711Z,97463.19
2022-08-22T15:24:57.268Z,97468.22
2022-08-22T15:27:26.036Z,97466.28
2022-08-22T15:30:02.570Z,97471.16
2022-08-22T15:32:31.954Z,97472.44
2022-08-22T15:35:09.458Z,97467.41
2022-08-22T15:38:01.439Z,97472.91
2022-08-22T15:40:43.753Z,97467.72
2022-08-22T15:43:20.497Z,97482.34
2022-08-22T15:45:49.139Z,97474.59
2022-08-22T15:48:33.783Z,97459.22
2022-08-22T15:51:09.221Z,97464.66
2022-08-22T15:53:45.499Z,97463.34
2022-08-22T15:56:12.067Z,97457.38
2022-08-22T15:58:48.890Z,97470.09
2022-08-22T16:01:23.701Z,97460.38
2022-08-22T16:04:06.720Z,97459.88
2022-08-22T16:06:45.257Z,97463.59
2022-08-22T16:09:39.204Z,97462.19
2022-08-22T16:12:12.608Z,97463.13
2022-08-22T16:14:42.131Z,97468.81
2022-08-22T16:17:30.555Z,97470.19
2022-08-22T16:20:26.336Z,97469.38
2022-08-22T16:22:58.934Z,97466.66
2022-08-22T16:25:50.360Z,97470.41
2022-08-22T16:29:41.483Z,97477.22
2022-08-22T16:32:11.481Z,97475.44
2022-08-22T16:34:37.977Z,97469.97
2022-08-22T16:37:25.662Z,97475.31
2022-08-22T16:39:58.738Z,97480.16
2022-08-22T16:42:29.869Z,97481.63
2022-08-22T16:45:11.689Z,97481.63
2022-08-22T16:47:43.307Z,97488.72
2022-08-22T16:50:19.229Z,97487.09
2022-08-22T16:53:20.811Z,97476.59
2022-08-22T16:56:15.056Z,97471.09
2022-08-22T16:59:23.033Z,97480.63
2022-08-22T17:02:08.529Z,97489.16
2022-08-22T17:05:02.779Z,97486.75
2022-08-22T17:07:51.447Z,97485.44
2022-08-22T17:10:38.656Z,97476.72
2022-08-22T17:13:26.446Z,97478.00
2022-08-22T17:16:22.308Z,97486.56
2022-08-22T17:19:25.464Z,97474.72
2022-08-22T17:22:00.020Z,97478.50
2022-08-22T17:24:39.370Z,97490.06
2022-08-22T17:27:15.220Z,97490.63
2022-08-22T17:29:45.050Z,97495.91
2022-08-22T17:32:33.654Z,97495.88
2022-08-22T17:35:03.207Z,97497.41
2022-08-22T17:38:03.986Z,97491.34
2022-08-22T17:40:45.849Z,97500.63
2022-08-22T17:43:33.457Z,97506.78
2022-08-22T17:46:54.328Z,97498.94
2022-08-22T17:49:38.822Z,97503.69
2022-08-22T17:52:20.052Z,97502.38
2022-08-22T17:55:05.872Z,97504.84
2022-08-22T17:57:39.061Z,97506.75
2022-08-22T18:00:15.433Z,97505.13
2022-08-22T18:02:50.939Z,97519.63
2022-08-22T18:05:23.153Z,97514.78
2022-08-22T18:08:01.945Z,97518.31
2022-08-22T18:10:56.573Z,97522.66
2022-08-22T18:13:51.421Z,97521.06
2022-08-22T18:16:35.831Z,97524.28
2022-08-22T18:19:32.968Z,97524.78
2022-08-22T18:22:35.222Z,97535.25
2022-08-22T18:25:20.596Z,97537.16
2022-08-22T18:31:22.846Z,97540.09
2022-08-22T18:33:58.428Z,97542.75
2022-08-22T18:36:35.371Z,97535.56
2022-08-22T18:39:21.941Z,97556.22
2022-08-22T18:42:02.617Z,97543.16
2022-08-22T18:44:33.321Z,97545.88
2022-08-22T18:47:12.355Z,97552.97
2022-08-22T18:49:43.534Z,97546.19
2022-08-22T18:52:10.325Z,97546.19
2022-08-22T18:55:15.853Z,97545.06
2022-08-22T18:58:13.671Z,97546.59
2022-08-22T19:00:51.376Z,97532.41
2022-08-22T19:03:58.738Z,97526.41
2022-08-22T19:06:53.012Z,97535.44
2022-08-22T19:09:25.849Z,97538.00
2022-08-22T19:12:25.239Z,97539.22
2022-08-22T19:15:07.311Z,97540.94
2022-08-22T19:18:01.376Z,97535.88
2022-08-22T19:20:56.349Z,97542.97
2022-08-22T19:23:40.702Z,97534.38
2022-08-22T19:26:38.024Z,97541.16
2022-08-22T19:29:30.012Z,97548.34
2022-08-22T19:31:59.918Z,97552.31
2022-08-22T19:34:30.532Z,97554.22
2022-08-22T19:37:33.150Z,97550.66
2022-08-22T19:40:07.657Z,97552.91
2022-08-22T19:42:36.761Z,97548.34
2022-08-22T19:45:22.191Z,97545.91
2022-08-22T19:47:57.013Z,97557.34
2022-08-22T19:50:30.893Z,97556.34
2022-08-22T19:53:10.602Z,97555.84
2022-08-22T19:55:39.807Z,97555.44
2022-08-22T19:58:31.931Z,97550.25
2022-08-22T20:01:08.980Z,97545.06
2022-08-22T20:03:58.931Z,97533.91
2022-08-22T20:06:44.592Z,97534.81
2022-08-22T20:09:26.930Z,97540.88
2022-08-22T20:12:33.051Z,97532.78
2022-08-22T20:15:22.086Z,97537.53
2022-08-22T20:20:55.808Z,97541.53
2022-08-22T20:23:31.484Z,97532.41
2022-08-22T20:25:59.295Z,97535.47
2022-08-22T20:34:22.956Z,97538.06
2022-08-22T20:37:16.135Z,97535.44
2022-08-22T20:40:00.004Z,97531.06
2022-08-22T20:42:32.819Z,97532.75
2022-08-22T20:45:12.245Z,97521.63
2022-08-22T20:47:41.698Z,97524.34
2022-08-22T20:50:12.163Z,97520.31
2022-08-22T20:52:51.863Z,97521.94
2022-08-22T20:55:31.353Z,97524.94
2022-08-22T20:58:25.553Z,97530.91
2022-08-22T21:00:55.000Z,97533.97
2022-08-22T21:03:42.536Z,97529.81
2022-08-22T21:06:15.182Z,97532.47
2022-08-22T21:08:43.686Z,97527.22
2022-08-22T21:11:42.564Z,97528.81
2022-08-22T21:14:23.967Z,97540.19
2022-08-22T21:16:53.819Z,97525.72
2022-08-22T21:19:26.146Z,97530.88
2022-08-22T21:21:53.539Z,97539.69
2022-08-22T21:24:23.443Z,97539.38
2022-08-22T21:26:58.747Z,97527.94
2022-08-22T21:29:32.728Z,97527.72
2022-08-22T21:32:32.912Z,97523.06
2022-08-22T21:35:01.684Z,97530.97
2022-08-22T21:37:39.916Z,97522.75
2022-08-22T21:40:17.841Z,97513.47
2022-08-22T21:43:06.794Z,97508.81
2022-08-22T21:45:44.503Z,97507.09
2022-08-22T21:48:39.402Z,97502.72
2022-08-22T21:51:42.098Z,97504.03
2022-08-22T21:54:31.338Z,97504.38
2022-08-22T21:57:10.926Z,97490.59
2022-08-22T21:59:59.489Z,97503.44
2022-08-22T22:02:44.559Z,97500.22
2022-08-22T22:05:14.140Z,97494.25
2022-08-22T22:07:43.606Z,97499.41
2022-08-22T22:10:12.823Z,97496.16
2022-08-22T22:12:44.525Z,97486.34
2022-08-22T22:15:18.299Z,97490.69
2022-08-22T22:17:45.177Z,97483.59
2022-08-22T22:20:13.030Z,97490.69
2022-08-22T22:22:46.000Z,97475.19
2022-08-22T22:25:41.324Z,97484.19
2022-08-22T22:28:16.316Z,97480.97
2022-08-22T22:32:34.466Z,97480.66
2022-08-22T22:35:01.138Z,97487.16
2022-08-22T22:37:28.240Z,97480.25
2022-08-22T22:39:55.463Z,97477.44
2022-08-22T22:42:22.576Z,97467.22
2022-08-22T22:44:49.507Z,97462.25
2022-08-22T22:47:16.125Z,97462.84
2022-08-22T22:49:44.822Z,97459.41
2022-08-22T22:52:11.686Z,97451.13
2022-08-22T22:54:38.427Z,97445.03
2022-08-22T22:57:07.865Z,97462.31
2022-08-22T22:59:39.558Z,97451.34
2022-08-22T23:02:19.523Z,97460.97
2022-08-22T23:04:50.108Z,97482.59
2022-08-22T23:07:18.417Z,97469.16
2022-08-22T23:09:45.377Z,97478.81
2022-08-22T23:12:13.860Z,97477.50
2022-08-22T23:14:40.911Z,97480.97
2022-08-22T23:17:07.550Z,97496.81
2022-08-22T23:19:34.576Z,97494.16
2022-08-22T23:22:01.524Z,97493.94
2022-08-22T23:24:31.253Z,97483.72
2022-08-22T23:26:59.157Z,97484.50
2022-08-22T23:29:26.295Z,97490.56
2022-08-22T23:31:56.454Z,97481.63
2022-08-22T23:34:27.060Z,97490.72
2022-08-22T23:36:56.250Z,97488.94
2022-08-22T23:39:25.181Z,97484.44
2022-08-22T23:41:52.360Z,97483.66
2022-08-22T23:44:23.585Z,97473.81
2022-08-22T23:46:51.103Z,97473.88
2022-08-22T23:49:18.511Z,97472.41
2022-08-22T23:51:45.406Z,97476.78
2022-08-22T23:54:12.777Z,97470.22
2022-08-22T23:56:44.557Z,97487.91
2022-08-22T23:59:14.473Z,97481.31
